Terminal Aerodrome Forecast
Issued by NWS Wilmington, OH

Current Version | Previous Version | Graphics & Text | Print | Product List | Glossary Off
Versions: 1 2 3 4 5 6 7 8 9 10 11 12 13 14 15 16 17 18 19 20 21

000
FTUS41 KILN 040900 AAA
TAFCMH
TAF AMD
KCMH 040920Z 0409/0506 30008KT 5SM -RA BR SCT012 OVC050
      TEMPO 0409/0412 BKN012
     FM041200 31007KT P6SM SCT015 OVC060
      TEMPO 0415/0418 BKN015
     FM042000 32011KT 3SM -SN OVC012
     FM050400 33009KT P6SM SCT018 OVC120=

USA.gov is the U.S. government's official web portal to all federal, state and local government web resources and services.